createdAt,value
2023-04-19T00:02:04.399Z,94928.56
2023-04-19T00:04:34.053Z,94925.47
2023-04-19T00:07:03.514Z,94924.61
2023-04-19T00:09:32.222Z,94922.31
2023-04-19T00:12:01.614Z,94921.12
2023-04-19T00:14:30.516Z,94924.59
2023-04-19T00:16:59.241Z,94921.44
2023-04-19T00:19:28.611Z,94917.86
2023-04-19T00:21:57.467Z,94908.58
2023-04-19T00:24:26.220Z,94911.30
2023-04-19T00:26:54.968Z,94911.30
2023-04-19T00:29:24.031Z,94912.67
2023-04-19T00:31:53.263Z,94909.31
2023-04-19T00:34:48.962Z,94907.69
2023-04-19T00:37:17.988Z,94906.56
2023-04-19T00:39:46.713Z,94897.70
2023-04-19T00:42:15.366Z,94903.37
2023-04-19T00:44:44.073Z,94907.69
2023-04-19T00:47:13.428Z,94904.65
2023-04-19T00:49:42.464Z,94904.75
2023-04-19T00:52:15.500Z,94909.70
2023-04-19T00:54:44.547Z,94899.80
2023-04-19T00:57:13.249Z,94901.63
2023-04-19T00:59:42.478Z,94898.55
2023-04-19T01:02:11.785Z,94900.38
2023-04-19T01:04:40.641Z,94896.32
2023-04-19T01:07:12.465Z,94895.37
2023-04-19T01:09:46.431Z,94890.94
2023-04-19T01:12:16.597Z,94885.75
2023-04-19T01:14:46.975Z,94882.78
2023-04-19T01:17:15.956Z,94884.59
2023-04-19T01:19:51.092Z,94887.70
2023-04-19T01:22:23.622Z,94886.31
2023-04-19T01:25:00.348Z,94892.94
2023-04-19T01:27:24.693Z,94891.12
2023-04-19T01:29:53.502Z,94893.05
2023-04-19T01:32:22.317Z,94889.88
2023-04-19T01:34:51.915Z,94883.16
2023-04-19T01:37:20.711Z,94885.45
2023-04-19T01:39:49.363Z,94886.96
2023-04-19T01:42:18.024Z,94887.59
2023-04-19T01:44:46.617Z,94878.20
2023-04-19T01:47:15.341Z,94882.59
2023-04-19T01:49:44.128Z,94880.86
2023-04-19T01:52:12.887Z,94876.36
2023-04-19T01:54:41.507Z,94879.73
2023-04-19T01:57:10.139Z,94875.02
2023-04-19T01:59:38.792Z,94874.09
2023-04-19T02:02:10.220Z,94872.56
2023-04-19T02:04:39.093Z,94873.22
2023-04-19T02:07:08.009Z,94877.19
2023-04-19T02:09:38.050Z,94880.98
2023-04-19T02:12:07.504Z,94871.92
2023-04-19T02:14:37.066Z,94874.67
2023-04-19T02:17:05.728Z,94879.83
2023-04-19T02:19:34.406Z,94875.73
2023-04-19T02:22:03.262Z,94875.09
2023-04-19T02:24:31.868Z,94870.51
2023-04-19T02:27:02.209Z,94869.52
2023-04-19T02:29:31.186Z,94865.93
2023-04-19T02:32:00.011Z,94860.81
2023-04-19T02:34:29.708Z,94861.78
2023-04-19T02:36:58.575Z,94865.16
2023-04-19T02:39:27.891Z,94866.92
2023-04-19T02:41:57.413Z,94867.12
2023-04-19T02:44:26.205Z,94865.96
2023-04-19T02:47:00.495Z,94865.30
2023-04-19T02:49:32.399Z,94864.59
2023-04-19T02:52:01.027Z,94864.72
2023-04-19T02:54:29.723Z,94865.53
2023-04-19T02:57:03.807Z,94865.42
2023-04-19T02:59:37.850Z,94849.63
2023-04-19T03:02:08.272Z,94864.23
2023-04-19T03:04:41.045Z,94866.01
2023-04-19T03:07:13.135Z,94869.63
2023-04-19T03:09:49.108Z,94868.47
2023-04-19T03:12:19.517Z,94870.08
2023-04-19T03:14:50.003Z,94866.33
2023-04-19T03:17:26.227Z,94862.11
2023-04-19T03:20:00.387Z,94866.36
2023-04-19T03:22:31.390Z,94868.23
2023-04-19T03:25:04.110Z,94868.88
2023-04-19T03:27:39.908Z,94863.42
2023-04-19T03:30:19.309Z,94863.63
2023-04-19T03:32:58.800Z,94860.38
2023-04-19T03:35:33.637Z,94864.86
2023-04-19T03:38:07.856Z,94866.39
2023-04-19T03:40:39.042Z,94868.23
2023-04-19T03:43:13.736Z,94870.18
2023-04-19T03:45:45.622Z,94867.95
2023-04-19T03:48:16.146Z,94868.65
2023-04-19T03:50:47.122Z,94868.37
2023-04-19T03:53:33.678Z,94864.35
2023-04-19T03:56:08.893Z,94861.13
2023-04-19T03:58:40.984Z,94864.72
2023-04-19T04:01:09.360Z,94856.07
2023-04-19T04:07:09.724Z,94859.32
2023-04-19T04:09:40.061Z,94858.73
2023-04-19T04:12:15.145Z,94863.42
2023-04-19T04:14:45.424Z,94871.00
2023-04-19T04:17:14.252Z,94871.66
2023-04-19T04:26:03.181Z,94872.95
2023-04-19T04:32:58.602Z,94884.88
2023-04-19T04:35:31.960Z,94885.30
2023-04-19T04:38:17.478Z,94883.46
2023-04-19T04:40:38.941Z,94876.72
2023-04-19T04:43:13.455Z,94881.66
2023-04-19T04:45:49.837Z,94878.61
2023-04-19T04:48:20.063Z,94877.44
2023-04-19T04:50:53.683Z,94876.05
2023-04-19T04:53:22.348Z,94881.34
2023-04-19T04:56:00.359Z,94879.91
2023-04-19T04:58:33.251Z,94880.30
2023-04-19T05:01:07.494Z,94890.39
2023-04-19T05:04:34.597Z,94881.31
2023-04-19T05:07:05.791Z,94877.84
2023-04-19T05:12:27.500Z,94887.67
2023-04-19T05:14:56.088Z,94889.04
2023-04-19T05:17:26.606Z,94893.84
2023-04-19T05:19:55.284Z,94889.86
2023-04-19T05:22:24.346Z,94889.38
2023-04-19T05:24:55.961Z,94896.74
2023-04-19T05:27:26.308Z,94893.79
2023-04-19T05:29:55.098Z,94894.69
2023-04-19T05:36:10.902Z,94896.11
2023-04-19T05:38:41.193Z,94904.41
2023-04-19T05:41:12.758Z,94894.67
2023-04-19T05:50:24.763Z,94896.30
2023-04-19T05:52:53.499Z,94900.97
2023-04-19T05:55:22.294Z,94898.11
2023-04-19T05:57:51.706Z,94896.97
2023-04-19T06:00:25.042Z,94897.30
2023-04-19T06:02:53.069Z,94897.84
2023-04-19T06:05:22.636Z,94898.14
2023-04-19T06:11:31.805Z,94906.51
2023-04-19T06:13:56.501Z,94902.04
2023-04-19T06:16:28.555Z,94907.36
2023-04-19T06:19:01.022Z,94904.75
2023-04-19T06:21:36.988Z,94902.31
2023-04-19T06:30:28.419Z,94901.48
2023-04-19T06:33:03.626Z,94910.09
2023-04-19T06:35:40.310Z,94906.75
2023-04-19T06:38:04.980Z,94907.92
2023-04-19T06:40:34.482Z,94906.05
2023-04-19T06:47:00.326Z,94910.14
2023-04-19T06:49:59.588Z,94926.75
2023-04-19T06:52:04.535Z,94919.45
2023-04-19T06:58:21.750Z,94919.89
2023-04-19T07:01:08.182Z,94927.73
2023-04-19T07:03:43.097Z,94929.73
2023-04-19T07:06:18.489Z,94926.23
2023-04-19T07:08:55.086Z,94917.78
2023-04-19T07:11:30.817Z,94937.88
2023-04-19T07:14:03.202Z,94933.86
2023-04-19T07:16:42.553Z,94928.75
2023-04-19T07:19:15.568Z,94935.15
2023-04-19T07:21:55.625Z,94926.87
2023-04-19T07:24:26.490Z,94929.59
2023-04-19T07:27:01.960Z,94927.78
2023-04-19T07:29:32.510Z,94933.66
2023-04-19T07:32:07.977Z,94934.89
2023-04-19T07:34:39.249Z,94933.23
2023-04-19T07:37:10.115Z,94934.95
2023-04-19T07:39:46.769Z,94932.30
2023-04-19T07:42:26.443Z,94933.43
2023-04-19T07:53:38.660Z,94929.27
2023-04-19T07:55:44.262Z,94932.91
2023-04-19T07:58:17.110Z,94931.19
2023-04-19T08:01:02.362Z,94930.02
2023-04-19T08:07:10.688Z,94936.31
2023-04-19T08:09:45.505Z,94935.45
2023-04-19T08:15:36.094Z,94933.95
2023-04-19T08:17:56.090Z,94930.95
2023-04-19T08:20:24.879Z,94932.16
2023-04-19T08:23:02.576Z,94935.15
2023-04-19T08:25:44.175Z,94923.56
2023-04-19T08:28:15.108Z,94935.35
2023-04-19T08:30:52.083Z,94936.31
2023-04-19T08:33:33.471Z,94927.33
2023-04-19T08:36:04.872Z,94930.11
2023-04-19T08:41:39.086Z,94927.68
2023-04-19T08:44:28.997Z,94930.44
2023-04-19T08:46:51.438Z,94927.02
2023-04-19T09:06:41.986Z,94875.97
2023-04-19T09:11:55.016Z,94913.52
2023-04-19T09:14:27.452Z,94901.12
2023-04-19T09:17:16.412Z,94898.72
2023-04-19T09:19:52.505Z,94901.08
2023-04-19T09:22:23.956Z,94900.75
2023-04-19T09:27:49.437Z,94896.31
2023-04-19T09:30:31.158Z,94812.66
2023-04-19T09:32:53.547Z,94898.62
2023-04-19T09:35:24.763Z,94889.67
2023-04-19T09:38:07.192Z,94888.53
2023-04-19T09:40:40.341Z,94899.09
2023-04-19T09:43:45.327Z,94890.47
2023-04-19T09:45:47.010Z,94821.93
2023-04-19T09:48:16.063Z,94890.81
2023-04-19T09:57:09.610Z,94881.63
2023-04-19T10:02:25.687Z,94865.30
2023-04-19T10:08:25.018Z,94862.84
2023-04-19T10:10:59.139Z,94865.66
2023-04-19T10:16:20.407Z,94864.28
2023-04-19T10:19:04.736Z,94860.84
2023-04-19T10:21:41.033Z,94866.90
2023-04-19T10:24:11.125Z,94857.53
2023-04-19T10:27:11.676Z,94863.06
2023-04-19T10:30:06.330Z,94856.33
2023-04-19T10:32:40.705Z,94853.73
2023-04-19T10:35:12.332Z,94852.50
2023-04-19T10:37:48.539Z,94858.84
2023-04-19T10:40:20.221Z,94856.33
2023-04-19T10:43:17.940Z,94844.23
2023-04-19T10:45:48.687Z,94849.36
2023-04-19T10:48:35.673Z,94840.20
2023-04-19T10:51:20.056Z,94833.63
2023-04-19T10:54:10.283Z,94837.81
2023-04-19T10:56:46.612Z,94831.25
2023-04-19T10:59:20.624Z,94827.78
2023-04-19T11:02:03.945Z,94823.50
2023-04-19T11:04:35.974Z,94829.64
2023-04-19T11:07:11.211Z,94828.89
2023-04-19T11:09:43.248Z,94821.02
2023-04-19T11:12:14.100Z,94823.80
2023-04-19T11:14:46.120Z,94820.38
2023-04-19T11:17:52.875Z,94819.69
2023-04-19T11:20:20.548Z,94813.82
2023-04-19T11:22:49.464Z,94816.42
2023-04-19T11:25:21.016Z,94801.91
2023-04-19T11:27:55.817Z,94808.44
2023-04-19T11:30:29.104Z,94819.13
2023-04-19T11:33:01.149Z,94815.59
2023-04-19T11:35:32.900Z,94814.71
2023-04-19T11:38:01.955Z,94806.00
2023-04-19T11:40:38.447Z,94796.06
2023-04-19T11:43:07.245Z,94806.45
2023-04-19T11:45:40.350Z,94805.94
2023-04-19T11:48:24.298Z,94799.09
2023-04-19T11:50:57.121Z,94804.89
2023-04-19T11:53:27.577Z,94799.18
2023-04-19T11:56:02.586Z,94796.06
2023-04-19T11:58:40.059Z,94790.95
2023-04-19T12:01:31.133Z,94777.11
2023-04-19T12:04:07.713Z,94784.21
2023-04-19T12:06:39.357Z,94782.86
2023-04-19T12:09:10.388Z,94779.67
2023-04-19T12:11:50.809Z,94780.29
2023-04-19T12:14:22.324Z,94774.81
2023-04-19T12:17:17.196Z,94774.00
2023-04-19T12:19:47.493Z,94773.02
2023-04-19T12:22:43.639Z,94771.59
2023-04-19T12:25:12.455Z,94769.99
2023-04-19T12:27:44.245Z,94766.02
2023-04-19T12:30:21.036Z,94769.62
2023-04-19T12:32:54.518Z,94769.90
2023-04-19T12:35:49.971Z,94765.52
2023-04-19T12:38:19.588Z,94768.23
2023-04-19T12:40:54.143Z,94761.79
2023-04-19T12:46:57.906Z,94765.70
2023-04-19T12:49:32.574Z,94761.40
2023-04-19T12:52:01.630Z,94702.91
2023-04-19T12:54:30.831Z,94764.19
2023-04-19T12:57:05.564Z,94770.70
2023-04-19T12:59:29.915Z,94768.02
2023-04-19T13:01:59.128Z,94767.20
2023-04-19T13:04:36.426Z,94779.09
2023-04-19T13:07:06.939Z,94790.95
2023-04-19T13:09:37.982Z,94804.98
2023-04-19T13:12:16.022Z,94807.71
2023-04-19T13:14:46.360Z,94800.97
2023-04-19T13:17:17.917Z,94809.73
2023-04-19T13:19:49.910Z,94807.02
2023-04-19T13:22:19.199Z,94809.21
2023-04-19T13:24:48.174Z,94813.17
2023-04-19T13:27:21.001Z,94821.78
2023-04-19T13:29:55.181Z,94816.91
2023-04-19T13:32:25.854Z,94809.36
2023-04-19T13:34:54.568Z,94812.19
2023-04-19T13:37:26.263Z,94808.05
2023-04-19T13:40:04.230Z,94808.64
2023-04-19T13:42:25.848Z,94805.94
2023-04-19T13:44:54.612Z,94803.41
2023-04-19T13:47:23.477Z,94797.06
2023-04-19T13:49:52.510Z,94799.76
2023-04-19T13:52:23.306Z,94794.89
2023-04-19T13:54:51.967Z,94792.58
2023-04-19T13:57:20.775Z,94796.66
2023-04-19T13:59:49.554Z,94798.13
2023-04-19T14:02:18.353Z,94797.13
2023-04-19T14:04:48.578Z,94798.91
2023-04-19T14:07:17.576Z,94800.30
2023-04-19T14:09:46.920Z,94802.09
2023-04-19T14:12:15.601Z,94800.29
2023-04-19T14:14:47.859Z,94797.84
2023-04-19T14:17:17.060Z,94799.79
2023-04-19T14:19:47.487Z,94794.77
2023-04-19T14:22:18.089Z,94798.02
2023-04-19T14:24:47.176Z,94797.17
2023-04-19T14:27:16.063Z,94796.02
2023-04-19T14:29:49.173Z,94797.74
2023-04-19T14:32:26.443Z,94761.78
2023-04-19T14:34:50.441Z,94791.36
2023-04-19T14:37:19.660Z,94776.91
2023-04-19T14:39:54.361Z,94720.25
2023-04-19T14:42:30.187Z,94781.70
2023-04-19T14:45:02.609Z,94792.58
2023-04-19T14:47:32.733Z,94793.63
2023-04-19T14:50:01.746Z,94793.45
2023-04-19T14:52:30.578Z,94794.02
2023-04-19T14:55:00.329Z,94799.37
2023-04-19T14:57:38.317Z,94796.42
2023-04-19T15:00:08.253Z,94800.23
2023-04-19T15:06:08.647Z,94806.06
2023-04-19T15:08:37.588Z,94810.27
2023-04-19T15:11:42.162Z,94805.48
2023-04-19T15:14:11.151Z,94798.91
2023-04-19T15:16:52.714Z,94802.00
2023-04-19T15:19:21.523Z,94804.33
2023-04-19T15:22:01.004Z,94807.44
2023-04-19T15:24:59.354Z,94808.09
2023-04-19T15:27:28.336Z,94808.54
2023-04-19T15:29:58.691Z,94811.63
2023-04-19T15:35:56.674Z,94815.91
2023-04-19T15:38:30.961Z,94812.77
2023-04-19T15:41:11.457Z,94820.95
2023-04-19T15:43:40.231Z,94828.71
2023-04-19T15:46:10.497Z,94838.38
2023-04-19T15:48:40.925Z,94833.45
2023-04-19T15:51:09.876Z,94832.78
2023-04-19T15:53:41.478Z,94827.06
2023-04-19T15:56:10.500Z,94822.48
2023-04-19T15:58:39.596Z,94828.48
2023-04-19T16:01:16.317Z,94832.28
2023-04-19T16:03:46.263Z,94833.73
2023-04-19T16:06:15.561Z,94825.49
2023-04-19T16:08:44.308Z,94815.72
2023-04-19T16:11:14.407Z,94820.73
2023-04-19T16:13:48.950Z,94829.89
2023-04-19T16:16:17.683Z,94828.80
2023-04-19T16:18:50.243Z,94830.95
2023-04-19T16:24:36.246Z,94830.98
2023-04-19T16:27:05.044Z,94832.00
2023-04-19T16:29:34.919Z,94838.30
2023-04-19T16:32:03.954Z,94837.39
2023-04-19T16:34:33.077Z,94842.38
2023-04-19T16:37:02.061Z,94844.26
2023-04-19T16:39:30.830Z,94849.69
2023-04-19T16:42:01.425Z,94830.19
2023-04-19T16:44:30.352Z,94851.63
2023-04-19T16:46:59.046Z,94851.06
2023-04-19T16:49:27.854Z,94846.02
2023-04-19T16:51:56.818Z,94851.31
2023-04-19T16:54:25.795Z,94846.61
2023-04-19T16:56:54.527Z,94846.12
2023-04-19T16:59:24.929Z,94849.25
2023-04-19T17:01:58.936Z,94849.64
2023-04-19T17:04:25.952Z,94861.30
2023-04-19T17:06:55.624Z,94857.72
2023-04-19T17:09:24.422Z,94857.87
2023-04-19T17:12:11.212Z,94859.98
2023-04-19T17:14:31.061Z,94863.59
2023-04-19T17:16:59.616Z,94870.64
2023-04-19T17:19:28.556Z,94875.43
2023-04-19T17:21:59.030Z,94878.31
2023-04-19T17:24:27.867Z,94888.41
2023-04-19T17:26:56.910Z,94888.03
2023-04-19T17:29:25.543Z,94888.41
2023-04-19T17:31:54.383Z,94899.09
2023-04-19T17:34:23.200Z,94900.60
2023-04-19T17:36:51.938Z,94907.64
2023-04-19T17:39:20.677Z,94909.95
2023-04-19T17:41:49.395Z,94918.73
2023-04-19T17:44:21.285Z,94923.88
2023-04-19T17:46:54.551Z,94921.56
2023-04-19T17:49:42.908Z,94922.49
2023-04-19T17:52:13.638Z,94932.05
2023-04-19T17:54:44.393Z,94932.39
2023-04-19T18:01:40.172Z,94944.62
2023-04-19T18:04:12.370Z,94941.97
2023-04-19T18:06:42.914Z,94945.00
2023-04-19T18:09:13.361Z,94946.94
2023-04-19T18:11:42.559Z,94876.44
2023-04-19T18:17:57.884Z,94954.95
2023-04-19T18:20:32.100Z,94956.11
2023-04-19T18:23:01.914Z,94959.15
2023-04-19T18:25:40.170Z,94964.12
2023-04-19T18:28:09.162Z,94971.16
2023-04-19T18:30:50.869Z,94977.80
2023-04-19T18:33:23.104Z,94975.31
2023-04-19T18:35:53.682Z,94975.94
2023-04-19T18:38:23.660Z,94981.28
2023-04-19T18:40:52.527Z,94991.40
2023-04-19T18:43:21.444Z,94986.23
2023-04-19T18:46:00.373Z,94994.09
2023-04-19T18:48:36.803Z,94995.44
2023-04-19T18:51:07.324Z,94998.45
2023-04-19T19:00:06.852Z,94999.39
2023-04-19T19:05:34.875Z,95003.38
2023-04-19T19:08:03.975Z,95003.27
2023-04-19T19:14:02.900Z,95011.36
2023-04-19T19:16:33.595Z,95008.46
2023-04-19T19:19:02.423Z,95017.53
2023-04-19T19:25:13.577Z,95018.05
2023-04-19T19:28:04.945Z,95017.85
2023-04-19T19:30:26.678Z,95015.20
2023-04-19T19:32:55.527Z,95017.92
2023-04-19T19:35:27.212Z,95016.92
2023-04-19T19:37:56.452Z,95026.92
2023-04-19T19:40:25.651Z,95023.45
2023-04-19T19:42:54.477Z,95024.90
2023-04-19T19:45:23.646Z,95025.02
2023-04-19T19:47:52.621Z,94987.25
2023-04-19T19:52:52.081Z,95016.27
2023-04-19T19:55:20.923Z,95011.38
2023-04-19T19:58:23.887Z,95018.38
2023-04-19T20:02:56.143Z,95011.97
2023-04-19T20:05:21.148Z,95017.63
2023-04-19T20:08:00.330Z,95017.21
2023-04-19T20:10:20.878Z,95011.44
2023-04-19T20:12:49.749Z,95014.16
2023-04-19T20:18:46.753Z,95016.69
2023-04-19T20:21:18.932Z,95016.83
2023-04-19T20:23:48.109Z,95019.44
2023-04-19T20:26:21.248Z,95015.57
2023-04-19T20:28:49.006Z,95017.01
2023-04-19T20:31:17.886Z,95013.61
2023-04-19T20:33:51.597Z,95012.77
2023-04-19T20:36:26.061Z,95018.61
2023-04-19T20:38:56.768Z,95016.27
2023-04-19T20:41:30.979Z,95018.19
2023-04-19T20:44:00.036Z,95013.16
2023-04-19T20:46:29.020Z,95013.66
2023-04-19T20:48:59.536Z,95007.77
2023-04-19T20:51:28.519Z,95009.84
2023-04-19T20:53:57.380Z,95004.79
2023-04-19T20:56:27.892Z,95002.57
2023-04-19T20:58:58.740Z,94998.26
2023-04-19T21:01:27.545Z,94987.27
2023-04-19T21:04:48.533Z,95001.59
2023-04-19T21:07:03.815Z,95001.78
2023-04-19T21:09:34.252Z,95008.95
2023-04-19T21:12:03.297Z,95009.06
2023-04-19T21:14:36.002Z,95011.59
2023-04-19T21:17:05.517Z,95012.55
2023-04-19T21:23:16.606Z,95001.45
2023-04-19T21:25:45.252Z,95002.98
2023-04-19T21:28:15.668Z,95006.64
2023-04-19T21:30:44.448Z,95003.80
2023-04-19T21:33:13.210Z,95008.88
2023-04-19T21:35:55.534Z,95007.75
2023-04-19T21:38:24.496Z,95010.41
2023-04-19T21:40:53.504Z,95019.55
2023-04-19T21:43:23.645Z,95013.91
2023-04-19T21:45:54.302Z,95017.27
2023-04-19T21:48:25.010Z,95019.08
2023-04-19T21:50:54.235Z,95019.80
2023-04-19T21:53:23.390Z,95020.73
2023-04-19T21:55:57.324Z,95019.41
2023-04-19T21:58:27.906Z,95023.59
2023-04-19T22:00:58.265Z,95021.75
2023-04-19T22:03:27.490Z,95019.48
2023-04-19T22:05:57.636Z,95018.52
2023-04-19T22:08:26.716Z,95023.16
2023-04-19T22:10:58.640Z,95026.48
2023-04-19T22:13:29.188Z,95021.20
2023-04-19T22:15:57.895Z,95021.97
2023-04-19T22:18:27.942Z,95022.30
2023-04-19T22:20:56.608Z,95021.01
2023-04-19T22:23:25.481Z,95017.80
2023-04-19T22:25:54.178Z,95018.55
2023-04-19T22:28:22.936Z,95020.14
2023-04-19T22:30:52.634Z,95016.54
2023-04-19T22:33:22.168Z,94999.02
2023-04-19T22:35:50.918Z,95018.10
2023-04-19T22:38:19.713Z,95015.24
2023-04-19T22:40:48.420Z,95017.52
2023-04-19T22:43:18.740Z,95016.97
2023-04-19T22:45:54.037Z,95012.45
2023-04-19T22:48:43.751Z,95010.38
2023-04-19T22:53:53.468Z,95012.13
2023-04-19T22:56:22.538Z,95015.91
2023-04-19T22:58:51.724Z,95010.19
2023-04-19T23:01:20.648Z,95008.66
2023-04-19T23:03:49.582Z,95006.76
2023-04-19T23:06:23.205Z,95002.20
2023-04-19T23:08:52.535Z,95004.48
2023-04-19T23:11:22.941Z,95001.41
2023-04-19T23:13:53.950Z,95001.80
2023-04-19T23:20:30.818Z,95002.52
2023-04-19T23:23:00.401Z,94997.55
2023-04-19T23:25:36.774Z,95000.02
2023-04-19T23:28:05.843Z,94995.45
2023-04-19T23:30:37.588Z,94991.80
2023-04-19T23:33:06.585Z,94990.27
2023-04-19T23:35:35.690Z,94986.08
2023-04-19T23:38:04.681Z,94990.05
2023-04-19T23:40:33.511Z,94982.09
2023-04-19T23:43:18.706Z,94985.89
2023-04-19T23:45:47.682Z,94988.74
2023-04-19T23:48:17.546Z,94982.70
2023-04-19T23:50:46.403Z,94981.91
2023-04-19T23:53:16.567Z,94980.06
2023-04-19T23:55:45.283Z,94979.50
2023-04-19T23:58:14.137Z,94978.93
